Rector, Illinois
Current Conditions -  °F | °C
As of 11:55 PM on Saturday 22 Nov 2014 (Local Time) from KHSB Reporting Station
Clear Clear  
Wind Chill: 50°   Ceiling: Unl
Heat Index: 50°   Visibility: 10mi
Dew Point: 38°   Wind: 3mph
Humidity: 63%   Direction: 140°SE
Pressure: 29.97"   Gusts: NA
Location:  37.8101°N, 88.4411°W
Report Text: KHSB 230555Z AUTO 14003KT 10SM CLR 10/03 A2997 RMK AO2 T00980031 10158 20098 401820047
Loading
Personal Weather Stations






























Interactive Weather Map New forecast layout! Learn more

10-Day Weather Forecast

Advertisements
Track Severe Weather on mobile